Time;durP1;ratioP1;P1;durP2;ratioP2;P2;SDS_P1;SDS_P2;PMS_P1;PMS_P2;Temp;Humidity;BMP_temperature;BMP_pressure;BME280_temperature;BME280_humidity;BME280_pressure;Samples;Min_cycle;Max_cycle;Signal;HPM_P1;HPM_P2
2023/12/19 00:00:12;;;;;;;52.88;9.32;;;6.70;99.80;;;;;;5023160;28;20026;-49
2023/12/19 00:02:39;;;;;;;54.50;9.65;;;6.70;99.80;;;;;;5023092;28;20030;-50
2023/12/19 00:05:08;;;;;;;39.95;8.80;;;6.60;99.90;;;;;;5005799;28;20439;-50
2023/12/19 00:07:33;;;;;;;48.97;9.30;;;6.60;99.90;;;;;;5005723;28;20052;-50
2023/12/19 00:09:59;;;;;;;45.15;8.70;;;6.60;99.90;;;;;;5021752;28;20055;-49
2023/12/19 00:12:24;;;;;;;43.47;8.32;;;6.60;99.90;;;;;;5022232;28;20030;-50
2023/12/19 00:14:50;;;;;;;45.70;9.05;;;6.60;99.90;;;;;;5023151;28;20034;-50
2023/12/19 00:17:16;;;;;;;40.38;9.25;;;6.60;99.90;;;;;;5021966;28;20080;-50
2023/12/19 00:19:41;;;;;;;46.80;9.23;;;6.60;99.90;;;;;;5023560;28;20037;-50
2023/12/19 00:22:07;;;;;;;34.83;8.52;;;6.60;99.90;;;;;;5022554;28;20054;-50
2023/12/19 00:24:32;;;;;;;36.65;9.38;;;6.60;99.90;;;;;;5022144;28;20032;-50
2023/12/19 00:26:58;;;;;;;39.50;9.13;;;6.60;99.90;;;;;;5023003;28;20087;-50
2023/12/19 00:29:23;;;;;;;42.30;8.00;;;6.50;99.90;;;;;;5054570;28;20037;-50
2023/12/19 00:31:51;;;;;;;46.25;9.45;;;6.60;99.90;;;;;;5021609;28;20026;-50
2023/12/19 00:34:17;;;;;;;35.20;8.98;;;6.50;99.90;;;;;;5024443;28;20030;-50
2023/12/19 00:36:43;;;;;;;32.33;8.75;;;6.50;99.90;;;;;;5008794;28;20057;-49
2023/12/19 00:39:09;;;;;;;37.90;8.25;;;6.50;99.90;;;;;;5008545;28;20026;-50
2023/12/19 00:41:34;;;;;;;40.70;8.63;;;6.50;99.90;;;;;;5008710;28;20033;-50
2023/12/19 00:44:01;;;;;;;26.10;7.50;;;6.60;99.90;;;;;;5008539;28;20026;-50
2023/12/19 00:46:26;;;;;;;30.17;8.30;;;6.50;99.90;;;;;;5024891;28;20056;-49
2023/12/19 00:48:52;;;;;;;36.95;8.18;;;6.50;99.90;;;;;;5025908;28;20034;-50
2023/12/19 00:51:17;;;;;;;27.50;7.35;;;6.50;99.90;;;;;;5025832;28;20041;-50
2023/12/19 00:53:43;;;;;;;29.45;7.82;;;6.50;99.90;;;;;;5025929;28;20501;-49
2023/12/19 00:56:09;;;;;;;25.77;6.50;;;6.50;99.90;;;;;;5024599;28;20040;-50
2023/12/19 00:58:38;;;;;;;34.08;7.90;;;6.50;99.80;;;;;;5025200;28;20030;-50
2023/12/19 01:01:04;;;;;;;29.98;7.22;;;6.50;99.80;;;;;;5024703;28;20030;-50
2023/12/19 01:03:30;;;;;;;27.35;7.20;;;6.50;99.80;;;;;;5024582;28;20036;-50
2023/12/19 01:05:55;;;;;;;21.77;7.10;;;6.40;99.80;;;;;;5025741;28;20053;-49
2023/12/19 01:08:21;;;;;;;30.92;7.90;;;6.40;99.80;;;;;;5025720;28;20022;-50
2023/12/19 01:10:46;;;;;;;26.50;6.35;;;6.40;99.80;;;;;;5025639;28;20037;-50
2023/12/19 01:13:12;;;;;;;29.05;6.32;;;6.40;99.80;;;;;;5008231;28;20029;-50
2023/12/19 01:15:38;;;;;;;28.13;6.80;;;6.40;99.80;;;;;;5007872;28;20026;-49
2023/12/19 01:18:03;;;;;;;21.80;6.95;;;6.40;99.80;;;;;;5024200;28;20030;-50
2023/12/19 01:20:29;;;;;;;26.58;6.57;;;6.40;99.90;;;;;;5024391;28;20029;-50
2023/12/19 01:22:54;;;;;;;19.73;6.38;;;6.40;99.90;;;;;;5024292;28;20109;-50
2023/12/19 01:25:20;;;;;;;19.80;5.80;;;6.40;99.80;;;;;;5007815;28;20022;-50
2023/12/19 01:27:46;;;;;;;20.17;6.10;;;6.30;99.80;;;;;;5024148;28;20026;-50
2023/12/19 01:30:12;;;;;;;18.33;6.00;;;6.30;99.80;;;;;;5024071;28;20049;-50
2023/12/19 01:32:37;;;;;;;28.65;6.25;;;6.30;99.80;;;;;;5025290;28;20110;-50
2023/12/19 01:35:03;;;;;;;19.85;5.45;;;6.30;99.80;;;;;;5025216;28;20140;-50
2023/12/19 01:37:28;;;;;;;19.92;6.00;;;6.30;99.90;;;;;;5024959;28;20029;-50
2023/12/19 01:39:54;;;;;;;21.95;6.53;;;6.30;99.90;;;;;;5024120;28;20030;-50
2023/12/19 01:42:20;;;;;;;21.90;6.57;;;6.20;99.90;;;;;;5023815;28;20117;-49
2023/12/19 01:44:48;;;;;;;19.63;5.53;;;6.30;99.90;;;;;;5024838;28;20466;-50
2023/12/19 01:47:14;;;;;;;20.83;6.63;;;6.30;99.90;;;;;;5007939;28;20030;-50
2023/12/19 01:49:39;;;;;;;19.30;5.70;;;6.20;99.90;;;;;;5025446;28;20033;-49
2023/12/19 01:52:05;;;;;;;27.27;5.97;;;6.20;99.90;;;;;;5007613;28;20454;-50
2023/12/19 01:54:31;;;;;;;15.90;5.20;;;6.20;99.90;;;;;;5007551;28;20094;-50
2023/12/19 01:56:56;;;;;;;14.98;5.43;;;6.10;99.90;;;;;;5007421;28;20058;-50
2023/12/19 01:59:25;;;;;;;17.73;5.65;;;6.10;99.90;;;;;;5007234;28;20026;-50
2023/12/19 02:01:51;;;;;;;26.88;6.13;;;6.10;99.90;;;;;;5007479;28;20030;-50
2023/12/19 02:04:16;;;;;;;17.42;5.32;;;6.20;99.90;;;;;;5007442;28;20036;-50
2023/12/19 02:06:42;;;;;;;19.73;5.65;;;6.10;99.90;;;;;;5007256;28;20033;-49
2023/12/19 02:09:07;;;;;;;21.90;5.43;;;6.10;99.90;;;;;;5024962;28;20068;-50
2023/12/19 02:11:33;;;;;;;23.52;5.90;;;6.10;99.90;;;;;;5007080;28;20440;-50
2023/12/19 02:13:58;;;;;;;20.35;5.70;;;6.10;99.90;;;;;;5023509;28;20045;-50
2023/12/19 02:16:26;;;;;;;18.73;5.70;;;6.10;99.90;;;;;;5007045;28;20375;-50
2023/12/19 02:19:04;;;;;;;21.20;5.38;;;6.10;99.90;;;;;;5023425;28;20026;-50
2023/12/19 02:21:30;;;;;;;16.27;5.60;;;6.10;99.90;;;;;;5023391;28;20022;-50
2023/12/19 02:23:55;;;;;;;24.17;6.13;;;6.10;99.90;;;;;;5024675;28;20034;-50
2023/12/19 02:26:24;;;;;;;13.57;5.50;;;6.10;99.90;;;;;;5023294;28;20026;-50
2023/12/19 02:28:52;;;;;;;25.27;5.65;;;6.10;99.90;;;;;;4990929;28;20041;-50
2023/12/19 02:31:21;;;;;;;15.38;5.28;;;6.10;99.90;;;;;;5022941;28;20048;-50
2023/12/19 02:33:47;;;;;;;18.40;5.43;;;6.10;99.90;;;;;;5024627;28;20040;-50
2023/12/19 02:36:14;;;;;;;14.35;4.90;;;6.10;99.90;;;;;;5024380;28;20038;-50
2023/12/19 02:38:39;;;;;;;16.52;4.90;;;6.10;99.90;;;;;;5024246;28;20030;-50
2023/12/19 02:41:07;;;;;;;12.32;5.18;;;6.10;99.90;;;;;;5022988;28;20056;-50
2023/12/19 02:43:34;;;;;;;11.57;4.57;;;6.10;99.90;;;;;;5023088;28;20078;-50
2023/12/19 02:45:59;;;;;;;16.13;5.20;;;6.10;99.90;;;;;;5024279;28;20029;-50
2023/12/19 02:48:25;;;;;;;18.35;5.57;;;6.00;99.90;;;;;;5006717;28;20094;-50
2023/12/19 02:50:51;;;;;;;13.88;5.07;;;6.10;99.90;;;;;;5022997;28;20029;-49
2023/12/19 02:53:16;;;;;;;13.65;4.72;;;6.10;99.90;;;;;;5022910;28;20034;-49
2023/12/19 02:55:42;;;;;;;10.82;4.50;;;6.00;99.90;;;;;;5022081;28;20068;-50
2023/12/19 02:58:07;;;;;;;10.80;5.13;;;6.10;99.90;;;;;;5023880;28;20022;-50
2023/12/19 03:00:33;;;;;;;12.30;4.90;;;6.00;99.90;;;;;;5023900;28;20033;-49
2023/12/19 03:02:58;;;;;;;13.27;5.38;;;6.00;99.90;;;;;;5024006;28;20026;-50
2023/12/19 03:05:24;;;;;;;11.65;5.45;;;6.00;99.90;;;;;;5023896;28;20037;-50
2023/12/19 03:07:50;;;;;;;16.10;5.30;;;6.00;99.90;;;;;;5006312;28;20026;-50
2023/12/19 03:10:16;;;;;;;14.38;5.55;;;6.00;99.90;;;;;;5022714;28;20026;-49
2023/12/19 03:12:41;;;;;;;13.52;5.47;;;6.00;99.90;;;;;;5022516;28;20038;-50
2023/12/19 03:15:07;;;;;;;15.80;5.65;;;6.00;99.90;;;;;;5023841;28;20462;-49
2023/12/19 03:17:33;;;;;;;16.60;5.70;;;6.00;99.90;;;;;;5023632;28;20026;-50
2023/12/19 03:19:59;;;;;;;12.10;5.90;;;6.00;99.90;;;;;;5022810;28;20022;-50
2023/12/19 03:22:24;;;;;;;12.32;4.72;;;6.00;99.90;;;;;;5022474;28;20030;-50
2023/12/19 03:24:50;;;;;;;12.45;5.18;;;6.00;99.90;;;;;;5024192;28;20034;-50
2023/12/19 03:27:15;;;;;;;11.30;5.35;;;6.00;99.90;;;;;;5023553;28;20033;-50
2023/12/19 03:29:42;;;;;;;8.80;4.95;;;5.90;99.80;;;;;;5021948;28;20057;-50
2023/12/19 03:32:08;;;;;;;10.45;5.35;;;6.00;99.90;;;;;;5022073;28;20037;-50
2023/12/19 03:34:35;;;;;;;12.27;5.40;;;5.90;99.90;;;;;;5022457;28;20042;-50
2023/12/19 03:37:01;;;;;;;14.35;5.45;;;5.90;99.90;;;;;;5055204;28;20030;-50
2023/12/19 03:39:26;;;;;;;10.63;5.60;;;5.90;99.90;;;;;;5022325;28;20040;-50
2023/12/19 03:41:52;;;;;;;10.73;5.22;;;5.90;99.80;;;;;;5022508;28;20037;-50
2023/12/19 03:44:18;;;;;;;14.07;5.60;;;5.90;99.80;;;;;;5022221;28;20071;-50
2023/12/19 03:46:43;;;;;;;12.43;4.93;;;5.90;99.80;;;;;;5023348;28;20465;-50
2023/12/19 03:49:09;;;;;;;13.50;5.47;;;5.90;99.80;;;;;;5023552;28;20109;-50
2023/12/19 03:51:34;;;;;;;11.55;5.43;;;5.90;99.80;;;;;;5022207;28;20068;-50
2023/12/19 03:54:00;;;;;;;8.38;4.68;;;5.80;99.80;;;;;;5023352;28;20030;-50
2023/12/19 03:56:26;;;;;;;10.88;5.30;;;5.80;99.80;;;;;;5021909;28;20516;-50
2023/12/19 03:58:51;;;;;;;12.35;5.15;;;5.80;99.90;;;;;;5022052;28;20044;-50
2023/12/19 04:01:20;;;;;;;13.00;5.50;;;5.80;99.90;;;;;;5022232;28;20420;-50
2023/12/19 04:03:46;;;;;;;11.95;5.03;;;5.80;99.90;;;;;;5022612;28;20034;-50
2023/12/19 04:06:12;;;;;;;12.70;6.05;;;5.90;99.90;;;;;;5021990;28;20551;-50
2023/12/19 04:08:38;;;;;;;11.80;5.97;;;5.80;99.80;;;;;;5026667;28;20025;-50
2023/12/19 04:11:03;;;;;;;11.15;6.47;;;5.80;99.80;;;;;;5026802;28;20037;-49
2023/12/19 04:13:29;;;;;;;12.15;6.38;;;5.80;99.90;;;;;;5025549;28;20520;-50
2023/12/19 04:15:54;;;;;;;14.18;6.30;;;5.80;99.90;;;;;;5025379;28;20049;-49
2023/12/19 04:18:20;;;;;;;14.50;6.50;;;5.80;99.90;;;;;;5025203;28;20036;-50
2023/12/19 04:20:46;;;;;;;10.85;6.07;;;5.80;99.90;;;;;;5025052;28;20510;-50
2023/12/19 04:23:11;;;;;;;11.15;6.10;;;5.80;99.90;;;;;;5025132;28;20033;-50
2023/12/19 04:25:37;;;;;;;14.85;6.18;;;5.80;99.90;;;;;;5026314;28;20036;-49
2023/12/19 04:28:03;;;;;;;17.83;7.07;;;5.80;99.80;;;;;;5025091;28;20030;-50
2023/12/19 04:30:28;;;;;;;16.67;7.25;;;5.80;99.80;;;;;;5026136;28;20045;-50
2023/12/19 04:32:54;;;;;;;12.68;6.60;;;5.80;99.80;;;;;;5026353;28;20022;-50
2023/12/19 04:35:20;;;;;;;12.82;6.32;;;5.80;99.70;;;;;;5025070;28;20513;-50
2023/12/19 04:37:45;;;;;;;15.05;7.25;;;5.80;99.70;;;;;;5026127;28;20030;-50
2023/12/19 04:40:11;;;;;;;13.38;6.85;;;5.80;99.70;;;;;;5026121;28;20040;-50
2023/12/19 04:42:37;;;;;;;13.35;6.45;;;5.80;99.70;;;;;;5025083;28;20034;-50
2023/12/19 04:45:02;;;;;;;11.23;6.47;;;5.80;99.70;;;;;;5026499;28;20038;-49
2023/12/19 04:47:28;;;;;;;10.85;6.57;;;5.80;99.70;;;;;;5026370;28;20022;-49
2023/12/19 04:49:54;;;;;;;13.05;6.63;;;5.80;99.70;;;;;;5024889;28;20034;-50
2023/12/19 04:52:20;;;;;;;11.38;6.45;;;5.80;99.70;;;;;;5025831;28;20022;-50
2023/12/19 04:54:45;;;;;;;10.25;5.88;;;5.80;99.80;;;;;;5024862;28;20066;-50
2023/12/19 04:57:11;;;;;;;14.98;6.15;;;5.80;99.90;;;;;;5025906;28;20444;-50
2023/12/19 04:59:37;;;;;;;10.80;6.43;;;5.80;99.90;;;;;;5008450;28;20041;-50
2023/12/19 05:02:03;;;;;;;12.55;6.70;;;5.80;99.90;;;;;;5025846;28;20488;-50
2023/12/19 05:04:29;;;;;;;11.98;5.72;;;5.80;99.90;;;;;;5024473;28;20026;-50
2023/12/19 05:06:54;;;;;;;7.70;5.25;;;5.80;99.90;;;;;;5024583;28;20051;-49
2023/12/19 05:09:20;;;;;;;11.65;6.18;;;5.80;99.90;;;;;;5024457;28;20409;-50
2023/12/19 05:11:46;;;;;;;18.83;9.27;;;5.80;99.90;;;;;;5025548;28;20060;-50
2023/12/19 05:14:11;;;;;;;12.27;7.97;;;5.80;99.90;;;;;;5024783;28;20089;-49
2023/12/19 05:16:37;;;;;;;11.02;7.38;;;5.80;99.90;;;;;;5025681;28;20044;-50
2023/12/19 05:19:04;;;;;;;14.43;6.35;;;5.80;99.90;;;;;;5025039;28;20045;-49
2023/12/19 05:21:35;;;;;;;13.15;6.82;;;5.80;99.90;;;;;;5025646;28;20049;-50
2023/12/19 05:24:01;;;;;;;16.38;6.22;;;5.80;99.90;;;;;;5024394;28;20026;-49
2023/12/19 05:26:26;;;;;;;15.23;7.13;;;5.80;99.90;;;;;;5025475;28;20051;-50
2023/12/19 05:28:54;;;;;;;14.68;6.20;;;5.80;99.90;;;;;;5024274;28;20029;-50
2023/12/19 05:31:20;;;;;;;19.63;7.13;;;5.80;99.90;;;;;;5024270;28;20339;-50
2023/12/19 05:33:46;;;;;;;20.42;6.97;;;5.80;99.90;;;;;;5024089;28;20030;-50
2023/12/19 05:36:12;;;;;;;16.35;6.53;;;5.80;99.90;;;;;;5025315;28;20040;-49
2023/12/19 05:38:38;;;;;;;12.65;7.18;;;5.80;99.90;;;;;;5007776;28;20030;-50
2023/12/19 05:41:04;;;;;;;15.23;7.10;;;5.80;99.90;;;;;;5024981;28;20032;-50
2023/12/19 05:43:29;;;;;;;18.15;6.93;;;5.80;99.90;;;;;;5023931;28;20109;-50
2023/12/19 05:45:55;;;;;;;15.80;6.30;;;5.80;99.90;;;;;;5024574;28;20042;-50
2023/12/19 05:48:21;;;;;;;15.07;6.10;;;5.90;99.90;;;;;;5024093;28;20051;-50
2023/12/19 05:50:47;;;;;;;17.73;6.28;;;5.80;99.90;;;;;;5023997;28;20034;-50
2023/12/19 05:53:13;;;;;;;13.77;6.00;;;5.80;99.90;;;;;;5023862;28;20079;-50
2023/12/19 05:55:38;;;;;;;15.60;6.00;;;5.80;99.90;;;;;;5023713;28;20030;-49
2023/12/19 05:58:04;;;;;;;11.50;6.65;;;5.80;99.90;;;;;;5024868;28;20046;-50
2023/12/19 06:00:29;;;;;;;15.05;6.38;;;5.80;99.90;;;;;;5007821;28;20022;-50
2023/12/19 06:02:55;;;;;;;22.55;5.90;;;5.80;99.90;;;;;;5024843;28;20030;-50
2023/12/19 06:05:21;;;;;;;11.38;5.43;;;5.90;99.90;;;;;;5005272;28;20050;-50
2023/12/19 06:07:46;;;;;;;10.88;5.65;;;5.80;99.90;;;;;;5003491;28;20034;-50
2023/12/19 06:10:13;;;;;;;13.10;5.68;;;5.80;99.90;;;;;;5003144;28;20041;-50
2023/12/19 06:12:39;;;;;;;14.63;6.25;;;5.80;99.90;;;;;;5004944;28;20049;-50
2023/12/19 06:15:08;;;;;;;9.65;5.28;;;5.80;99.90;;;;;;5004017;28;20030;-50
2023/12/19 06:17:34;;;;;;;11.05;5.68;;;5.80;99.90;;;;;;5003166;28;20072;-50
2023/12/19 06:20:00;;;;;;;12.25;5.18;;;5.80;99.90;;;;;;5003463;28;20026;-49
2023/12/19 06:22:26;;;;;;;29.17;6.75;;;5.80;99.90;;;;;;4987486;28;20057;-50
2023/12/19 06:24:51;;;;;;;12.18;5.15;;;5.80;99.90;;;;;;5003849;28;20045;-50
2023/12/19 06:27:17;;;;;;;15.20;6.32;;;5.80;99.90;;;;;;5004800;28;20019;-50
2023/12/19 06:29:43;;;;;;;12.27;5.18;;;5.80;99.90;;;;;;5004111;28;20450;-50
2023/12/19 06:32:11;;;;;;;9.88;5.28;;;5.80;99.90;;;;;;5002841;28;20485;-50
2023/12/19 06:34:37;;;;;;;13.95;5.43;;;5.80;99.90;;;;;;5003516;28;20030;-50
2023/12/19 06:37:03;;;;;;;9.30;4.95;;;5.80;99.90;;;;;;5003063;28;20069;-49
2023/12/19 06:39:28;;;;;;;11.23;4.72;;;5.80;99.90;;;;;;5003262;28;20046;-50
2023/12/19 06:41:54;;;;;;;13.75;5.03;;;5.80;99.90;;;;;;5000906;28;20090;-50
2023/12/19 06:44:20;;;;;;;8.73;4.65;;;5.80;99.90;;;;;;4990955;28;20022;-50
2023/12/19 06:46:46;;;;;;;7.88;5.10;;;5.80;99.90;;;;;;5002492;28;20046;-50
2023/12/19 06:49:16;;;;;;;13.07;4.90;;;5.80;99.90;;;;;;4999295;28;20113;-50
2023/12/19 06:51:41;;;;;;;11.57;5.22;;;5.80;99.90;;;;;;5002313;28;20034;-50
2023/12/19 06:54:07;;;;;;;12.13;4.90;;;5.80;99.90;;;;;;5009745;28;20103;-50
2023/12/19 06:56:33;;;;;;;9.88;4.95;;;5.80;99.90;;;;;;5002888;28;20030;-50
2023/12/19 06:59:00;;;;;;;9.68;4.82;;;5.80;99.90;;;;;;5004142;28;20027;-50
2023/12/19 07:01:26;;;;;;;6.40;4.78;;;5.80;99.90;;;;;;5002577;28;20039;-49
2023/12/19 07:03:51;;;;;;;14.93;5.22;;;5.80;99.90;;;;;;5002394;28;20113;-50
2023/12/19 07:06:17;;;;;;;11.90;5.35;;;5.80;99.90;;;;;;5002631;28;20034;-50
2023/12/19 07:08:43;;;;;;;7.75;5.47;;;5.80;99.90;;;;;;5004437;28;20030;-50
2023/12/19 07:11:08;;;;;;;9.18;4.88;;;5.80;99.90;;;;;;5003143;28;20197;-50
2023/12/19 07:13:34;;;;;;;9.60;4.97;;;5.70;99.90;;;;;;5001684;28;20031;-49
2023/12/19 07:16:01;;;;;;;15.52;5.00;;;5.70;99.90;;;;;;5002470;28;20139;-58
2023/12/19 07:18:28;;;;;;;7.25;4.55;;;5.80;99.90;;;;;;5002883;28;20496;-58
2023/12/19 07:20:53;;;;;;;8.27;5.07;;;5.70;99.90;;;;;;5003498;28;20041;-58
2023/12/19 07:23:19;;;;;;;7.18;4.32;;;5.70;99.90;;;;;;5002311;28;20030;-58
2023/12/19 07:25:45;;;;;;;6.20;4.80;;;5.70;99.90;;;;;;5001174;28;20031;-58
2023/12/19 07:28:10;;;;;;;7.80;4.43;;;5.70;99.90;;;;;;4985841;28;20068;-58
2023/12/19 07:30:36;;;;;;;13.18;4.85;;;5.70;99.90;;;;;;4986377;28;20038;-58
2023/12/19 07:33:02;;;;;;;7.70;5.20;;;5.70;99.90;;;;;;4966548;28;20023;-58
2023/12/19 07:35:28;;;;;;;12.10;4.40;;;5.70;99.90;;;;;;4984489;28;20031;-57
2023/12/19 07:37:53;;;;;;;7.07;5.07;;;5.70;99.90;;;;;;4983121;28;20035;-58
2023/12/19 07:40:19;;;;;;;7.05;4.57;;;5.70;99.90;;;;;;5001653;28;20030;-58
2023/12/19 07:42:44;;;;;;;7.80;4.15;;;5.70;99.90;;;;;;5007023;28;20034;-58
2023/12/19 07:45:13;;;;;;;5.75;4.60;;;5.60;99.90;;;;;;5010563;28;20386;-57
2023/12/19 07:47:39;;;;;;;9.90;4.60;;;5.60;99.90;;;;;;5010160;28;20037;-58
2023/12/19 07:50:10;;;;;;;6.70;4.35;;;5.60;99.90;;;;;;4986831;28;20030;-58
2023/12/19 07:52:36;;;;;;;6.93;4.30;;;5.60;99.90;;;;;;4994942;28;20040;-58
2023/12/19 07:55:04;;;;;;;13.13;4.53;;;5.60;99.90;;;;;;4976497;28;20038;-57
2023/12/19 07:57:29;;;;;;;5.80;4.15;;;5.70;99.90;;;;;;5005996;28;20077;-58
2023/12/19 07:59:55;;;;;;;19.90;6.40;;;5.70;99.90;;;;;;5006899;28;20534;-58
2023/12/19 08:02:21;;;;;;;22.83;5.90;;;5.70;99.90;;;;;;5009436;28;20023;-58
2023/12/19 08:04:47;;;;;;;159.25;16.02;;;5.70;99.90;;;;;;5008709;28;20394;-58
2023/12/19 08:07:12;;;;;;;96.97;10.30;;;5.60;99.90;;;;;;5008278;28;20038;-57
2023/12/19 08:09:38;;;;;;;58.30;9.38;;;5.70;99.90;;;;;;5008480;28;20030;-58
2023/12/19 08:12:04;;;;;;;27.23;6.57;;;5.70;99.90;;;;;;5008670;28;20035;-57
2023/12/19 08:14:29;;;;;;;19.90;6.22;;;5.70;99.90;;;;;;5008613;28;20029;-58
2023/12/19 08:16:55;;;;;;;17.52;5.53;;;5.70;99.90;;;;;;5008687;28;20034;-58
2023/12/19 08:19:20;;;;;;;25.08;5.72;;;5.70;99.90;;;;;;5011164;28;20010;-58
2023/12/19 08:21:50;;;;;;;14.60;5.10;;;5.70;99.90;;;;;;5008349;28;20026;-58
2023/12/19 08:24:16;;;;;;;15.82;5.10;;;5.70;99.90;;;;;;5007405;28;20038;-57
2023/12/19 08:26:49;;;;;;;16.25;4.85;;;5.70;99.90;;;;;;5008061;28;20147;-58
2023/12/19 08:29:15;;;;;;;7.45;4.68;;;5.70;99.90;;;;;;5008829;28;20034;-58
2023/12/19 08:31:40;;;;;;;10.75;4.35;;;5.70;99.90;;;;;;5008742;28;20041;-58
2023/12/19 08:34:06;;;;;;;12.23;4.72;;;5.70;99.90;;;;;;5007987;28;20098;-58
2023/12/19 08:36:32;;;;;;;11.90;4.60;;;5.70;99.90;;;;;;5007857;28;20030;-58
2023/12/19 08:38:59;;;;;;;9.50;4.57;;;5.70;99.90;;;;;;4998995;28;20038;-57
2023/12/19 08:41:24;;;;;;;10.50;4.18;;;5.70;99.90;;;;;;4999080;28;20037;-58
2023/12/19 08:43:50;;;;;;;7.53;3.97;;;5.70;99.90;;;;;;4996554;28;20054;-58
2023/12/19 08:46:19;;;;;;;9.15;4.28;;;5.70;99.90;;;;;;4994405;28;20065;-58
2023/12/19 08:48:49;;;;;;;12.10;4.65;;;5.70;99.90;;;;;;4993355;28;20120;-58
2023/12/19 08:51:15;;;;;;;10.77;5.07;;;5.70;99.90;;;;;;4995484;28;20069;-58
2023/12/19 08:53:41;;;;;;;9.52;3.97;;;5.70;99.90;;;;;;4997244;28;20560;-58
2023/12/19 08:56:07;;;;;;;5.45;4.10;;;5.70;99.90;;;;;;4980704;28;20498;-58
2023/12/19 08:58:32;;;;;;;9.73;3.88;;;5.70;99.90;;;;;;4993944;28;20042;-58
2023/12/19 09:00:58;;;;;;;8.38;4.50;;;5.70;99.90;;;;;;4996813;28;20050;-57
2023/12/19 09:03:24;;;;;;;10.55;4.05;;;5.70;99.90;;;;;;5000437;28;20022;-57
2023/12/19 09:05:52;;;;;;;17.52;4.25;;;5.80;99.90;;;;;;4993549;28;20087;-58
2023/12/19 09:08:21;;;;;;;24.95;5.72;;;5.70;99.80;;;;;;4993352;28;20022;-58
2023/12/19 09:10:47;;;;;;;26.77;5.25;;;5.80;99.80;;;;;;4997016;28;20117;-58
2023/12/19 09:13:12;;;;;;;37.17;5.05;;;5.70;99.70;;;;;;4992086;28;20058;-58
2023/12/19 09:15:38;;;;;;;29.40;6.50;;;5.80;99.80;;;;;;4992117;28;20027;-58
2023/12/19 09:18:04;;;;;;;19.73;4.43;;;5.70;99.70;;;;;;5000120;28;20070;-58
2023/12/19 09:20:30;;;;;;;23.50;6.25;;;5.70;99.70;;;;;;4993490;28;20026;-58
2023/12/19 09:22:55;;;;;;;23.02;4.90;;;5.70;99.60;;;;;;5003957;28;20382;-58
2023/12/19 09:25:21;;;;;;;11.43;4.07;;;5.70;99.50;;;;;;4995261;28;20034;-58
2023/12/19 09:27:50;;;;;;;19.70;4.40;;;5.70;99.50;;;;;;5009441;28;20540;-58
2023/12/19 09:30:16;;;;;;;12.13;4.07;;;5.70;99.40;;;;;;4992838;28;20042;-57
2023/12/19 09:32:42;;;;;;;14.25;4.22;;;5.70;99.40;;;;;;4993027;28;20069;-57
2023/12/19 09:35:08;;;;;;;22.83;4.35;;;5.70;99.40;;;;;;4993119;28;20110;-58
2023/12/19 09:37:33;;;;;;;19.92;4.80;;;5.70;99.40;;;;;;4985583;28;20450;-58
2023/12/19 09:40:03;;;;;;;15.05;4.38;;;5.60;99.40;;;;;;4990015;28;20027;-58
2023/12/19 09:42:31;;;;;;;21.27;4.85;;;5.60;99.40;;;;;;4992648;28;20039;-58
2023/12/19 09:44:57;;;;;;;23.00;4.82;;;5.70;99.50;;;;;;4986783;28;20042;-58
2023/12/19 09:47:23;;;;;;;16.58;4.65;;;5.70;99.50;;;;;;4990179;28;20030;-57
2023/12/19 09:49:51;;;;;;;20.73;4.30;;;5.70;99.50;;;;;;5013184;28;20041;-58
2023/12/19 09:52:17;;;;;;;21.20;4.45;;;5.70;99.40;;;;;;4990809;28;20022;-57
2023/12/19 09:54:43;;;;;;;16.88;4.68;;;5.70;99.30;;;;;;4976900;28;20076;-58
2023/12/19 09:57:11;;;;;;;25.55;4.90;;;5.60;99.30;;;;;;4981088;28;20041;-58
2023/12/19 09:59:37;;;;;;;27.85;5.60;;;5.60;99.20;;;;;;4983161;28;20630;-58
2023/12/19 10:02:04;;;;;;;26.10;5.60;;;5.70;99.20;;;;;;5003656;28;20066;-58
2023/12/19 10:04:30;;;;;;;28.98;5.40;;;5.70;99.20;;;;;;4989590;28;20022;-58
2023/12/19 10:06:56;;;;;;;33.15;5.63;;;5.60;99.30;;;;;;4993313;28;20038;-58
2023/12/19 10:09:24;;;;;;;47.90;6.10;;;5.70;99.30;;;;;;4983099;28;20087;-58
2023/12/19 10:12:12;;;;;;;26.00;5.40;;;5.70;99.30;;;;;;4992056;28;20250;-57
2023/12/19 10:14:38;;;;;;;31.48;5.40;;;5.70;99.30;;;;;;4994737;28;20039;-58
2023/12/19 10:17:04;;;;;;;22.38;5.40;;;5.70;99.20;;;;;;4991894;28;20045;-58
2023/12/19 10:19:30;;;;;;;37.78;6.55;;;5.70;99.30;;;;;;4992226;28;20485;-58
2023/12/19 10:22:16;;;;;;;48.47;6.72;;;5.70;99.30;;;;;;4990740;28;20035;-58
2023/12/19 10:24:42;;;;;;;30.48;5.05;;;5.70;99.40;;;;;;4980152;28;20098;-58
2023/12/19 10:27:07;;;;;;;36.33;6.93;;;5.70;99.30;;;;;;4994242;28;20427;-58
2023/12/19 10:29:37;;;;;;;56.35;8.88;;;5.70;99.30;;;;;;4991837;28;20035;-58
2023/12/19 10:32:16;;;;;;;53.58;8.48;;;5.70;99.30;;;;;;4993487;28;20140;-58
2023/12/19 10:34:42;;;;;;;62.00;8.32;;;5.70;99.40;;;;;;4993590;28;20062;-58
2023/12/19 10:37:12;;;;;;;44.03;7.50;;;5.70;99.40;;;;;;4992266;28;20027;-58
2023/12/19 10:39:41;;;;;;;63.20;9.05;;;5.80;99.30;;;;;;4980352;28;20034;-58
2023/12/19 10:42:09;;;;;;;58.22;8.93;;;5.80;99.40;;;;;;4990454;28;20027;-58
2023/12/19 10:44:36;;;;;;;118.28;14.43;;;5.70;99.40;;;;;;4998285;28;20108;-58
2023/12/19 10:47:03;;;;;;;176.02;17.10;;;5.70;99.30;;;;;;4990663;28;20046;-58
2023/12/19 10:49:29;;;;;;;43.47;7.40;;;5.80;99.40;;;;;;4980145;28;20051;-58
2023/12/19 10:51:55;;;;;;;39.72;7.82;;;5.80;99.30;;;;;;4993206;28;20043;-58
2023/12/19 10:54:21;;;;;;;38.40;6.38;;;5.80;99.30;;;;;;4979094;28;20049;-58
2023/12/19 10:57:09;;;;;;;200.70;17.52;;;5.80;99.30;;;;;;4994163;28;20035;-58
2023/12/19 10:59:44;;;;;;;58.30;8.23;;;5.80;99.40;;;;;;5000722;28;20039;-57
2023/12/19 11:02:29;;;;;;;79.63;10.27;;;5.80;99.50;;;;;;4996552;28;20083;-58
2023/12/19 11:05:40;;;;;;;56.67;7.82;;;5.80;99.60;;;;;;4980150;28;20054;-58
2023/12/19 11:08:14;;;;;;;37.05;6.78;;;5.80;99.70;;;;;;4999211;28;20061;-58
2023/12/19 11:10:40;;;;;;;32.63;7.28;;;5.80;99.80;;;;;;4991964;28;20062;-58
2023/12/19 11:13:06;;;;;;;45.17;8.15;;;5.80;99.80;;;;;;4994124;28;20039;-58
2023/12/19 11:15:32;;;;;;;55.25;8.65;;;5.80;99.90;;;;;;4994482;28;20038;-58
2023/12/19 11:18:14;;;;;;;55.35;8.98;;;5.90;99.90;;;;;;4994246;28;20030;-58
2023/12/19 11:20:45;;;;;;;62.38;9.70;;;5.90;99.90;;;;;;4998207;28;20037;-58
2023/12/19 11:23:35;;;;;;;80.78;10.68;;;5.90;99.90;;;;;;5006554;28;20034;-58
2023/12/19 11:26:20;;;;;;;50.65;8.57;;;5.90;99.90;;;;;;4970918;28;20030;-58
2023/12/19 11:28:46;;;;;;;70.00;9.43;;;5.90;99.90;;;;;;4989648;28;20038;-58
2023/12/19 11:31:31;;;;;;;62.45;8.75;;;5.90;99.90;;;;;;4972233;28;20320;-58
2023/12/19 11:34:20;;;;;;;74.10;12.75;;;6.00;99.90;;;;;;4991268;28;20042;-58
2023/12/19 11:36:46;;;;;;;89.53;12.68;;;6.00;99.90;;;;;;5007489;28;20031;-58
2023/12/19 11:39:22;;;;;;;84.20;9.65;;;6.00;99.90;;;;;;4999128;28;20022;-58
2023/12/19 11:41:48;;;;;;;74.07;10.65;;;6.00;99.90;;;;;;4991049;28;20023;-58
2023/12/19 11:44:32;;;;;;;103.30;12.55;;;6.00;99.90;;;;;;4991596;28;20026;-58
2023/12/19 11:47:15;;;;;;;78.95;11.25;;;6.10;99.90;;;;;;5014298;28;20406;-58
2023/12/19 11:49:41;;;;;;;72.47;11.52;;;6.00;99.90;;;;;;4997966;28;20034;-58
2023/12/19 11:52:06;;;;;;;111.88;13.05;;;6.00;99.90;;;;;;4983580;28;20039;-58
2023/12/19 11:54:32;;;;;;;75.97;12.32;;;6.00;99.90;;;;;;4982688;28;20038;-57
2023/12/19 11:56:59;;;;;;;72.53;11.13;;;6.10;99.90;;;;;;4966286;28;20035;-58
2023/12/19 11:59:43;;;;;;;70.30;11.32;;;6.10;99.90;;;;;;4993285;28;20030;-57
2023/12/19 12:02:09;;;;;;;64.15;12.45;;;6.10;99.90;;;;;;4991427;28;20034;-58
2023/12/19 12:04:34;;;;;;;57.78;10.88;;;6.20;99.90;;;;;;5006056;28;20030;-58
2023/12/19 12:07:00;;;;;;;71.72;12.07;;;6.10;99.90;;;;;;5017354;28;20045;-58
2023/12/19 12:09:25;;;;;;;95.90;12.52;;;6.20;99.90;;;;;;5056532;28;20065;-57
2023/12/19 12:11:52;;;;;;;92.95;14.43;;;6.20;99.90;;;;;;4997063;28;20038;-58
2023/12/19 12:14:17;;;;;;;72.85;11.85;;;6.20;99.90;;;;;;5012773;28;20034;-58
2023/12/19 12:16:43;;;;;;;60.25;9.75;;;6.20;99.90;;;;;;5018527;28;20114;-58
2023/12/19 12:19:16;;;;;;;84.90;11.02;;;6.20;99.90;;;;;;5012316;28;20026;-58
2023/12/19 12:21:45;;;;;;;71.72;10.95;;;6.30;99.90;;;;;;5002063;28;20033;-58
2023/12/19 12:24:23;;;;;;;89.50;10.40;;;6.30;99.90;;;;;;5008936;28;20060;-57
2023/12/19 12:26:49;;;;;;;67.45;11.18;;;6.30;99.90;;;;;;4987739;28;20043;-58
2023/12/19 12:29:17;;;;;;;94.68;11.52;;;6.30;99.90;;;;;;5011589;28;20042;-58
2023/12/19 12:31:43;;;;;;;70.00;11.07;;;6.30;99.90;;;;;;5000763;28;20034;-58
2023/12/19 12:34:09;;;;;;;73.72;10.93;;;6.30;99.90;;;;;;5037192;28;20030;-57
2023/12/19 12:36:35;;;;;;;74.53;11.18;;;6.30;99.90;;;;;;5005111;28;20026;-58
2023/12/19 12:39:00;;;;;;;92.72;11.68;;;6.30;99.90;;;;;;5020474;28;20462;-58
2023/12/19 12:41:27;;;;;;;74.93;10.70;;;6.40;99.90;;;;;;5005336;28;20118;-50
2023/12/19 12:43:55;;;;;;;147.98;15.57;;;6.40;99.90;;;;;;5023411;28;20396;-50